Flora Municipal, IL

09:14 PM CDT am 30. August 2014 (GMT -0500)
Olney-Noble | Change Station
CLOSE
Current Station
Flughafen
Location: Olney-Noble,
Höhe: 482 ft
Wetterstationen in der Umgebung

Höhe 482 ft 38.72 °N, 88.18 °W | Updated 19 minutes ago

Clear
Heiter
72 °F
gefühlte 72 °F
N
0
Wind Wechselnd Wind aus Nord

Heute
Max. -- | schwach -- °F
--% Regenrisiko
Gestern
Max. -- | schwach -- °F
Precip. -- inch
6:21 AM 7:26 PM
Erstes Viertel, 26% visible
Druck 29.98 inch
Sichtweite 10.0 Meilen
Wolken Heiter
Taupunkt 70 °F
Feuchtigkeit 94%
Regen 0.27 inch
Schneehöhe Nicht verfügbar..
UV 0 von 12
Pollen 7.30 von 12
Luftqualität Nicht verfügbar..
Flu Activity Nicht verfügbar..
METAR KOLY 310155Z AUTO 00000KT 10SM CLR 22/21 A2998 RMK AO2

More Conditions Fewer Conditions

Druck 29.98 inch
Sichtweite 10.0 Meilen
Wolken Heiter
Taupunkt 70 °F
Feuchtigkeit 94%
Regen 0.27 inch
Schneehöhe Nicht verfügbar..
UV 0 von 12
Pollen 7.30 von 12
Luftqualität Nicht verfügbar..
Flu Activity Nicht verfügbar..
METAR KOLY 310155Z AUTO 00000KT 10SM CLR 22/21 A2998 RMK AO2

More Conditions Fewer Conditions

10-Day Weather Forecast

Almanac

Astronomie

Aug. 30, 2014 Aufgang Untergang
Genaue Zeit 06:21 CDT 19:26 CDT
Bürgerliche Dämmerung 05:53 CDT 19:54 CDT
Nautische Dämmerung 05:21 CDT 20:26 CDT
Astronomische Dämmerung 04:47 CDT 21:00 CDT
Mond 11:05 CDT (8/30) 22:04 CDT (8/30)
Länge des sichtbaren Lichts 14h 00m
Tageslänge
13h 05m
Tomorrow will be 2m 24s shorter.
Erstes Viertel, 26% of the Moon is Illuminated
Heute
Erstes Viertel
Sept 2
Erstes Viertel
Sept 8
Vollmond
Sept 15
Letztes Viertel
Sept 24
Neu

Heutige Rekorde

State Highs State Lows

Community

WunderPhotos

Upload Photos

1,748,736 Fotos hochgeladen!

Nearby

Schneehöhe

Station Depth Höhe
Kein Neuschnee gemeldet.

Erdbebenaktivität

Stadt Distance Mag. Time & Date
No recent earthquake activity has been reported nearby.
Minimum magnitude displayed is 2.5.

küstennahe Wassertemperaturen

Ort Temperatur
Kein Stationsbericht

Wetterstationen in der Umgebung